Latest Coastal Weather Observations for Wadeye (Port Keats)

IDD60701

Issued at 4:21 pm CST Friday 18 September 2020 (issued every 10 minutes, with the page automatically refreshed every 10 minutes)

About coastal observations | Map of coastal stations | Coastal observations for NT | Marine services | Other Formats
Station Details ID: 014948 Name: PORT KEATS AIRPORT Lat: -14.25 Lon: 129.53 Height: 28.0 m
Data from the previous 72 hours. | See also: Recent months at Wadeye (Port Keats)
Date/Time
CST
Wind Sea
Height
m
Swell Vis
km
Cloud Weather Temp
°C
Press
hPa
Rain since
9am
mm
Dir  Spd
kts
Gust
kts
Height
m
Period
s
Dir
18/04:00pm WNW 9 15 - - - - - - - 31.4 1010.4 0.0
18/03:30pm WNW 8 13 - - - - - - - 32.5 1010.4 0.0
18/03:00pm W 9 15 - - - - - - - 32.0 1010.7 0.0
18/02:30pm NW 10 13 - - - - - - - 31.4 1011.0 0.0
18/02:00pm NW 10 13 - - - - - - - 32.3 1011.4 0.0
18/01:30pm NW 8 14 - - - - - - - 31.8 1011.8 0.0
18/01:00pm NW 9 14 - - - - - - - 32.4 1012.3 0.0
18/12:30pm NNW 9 14 - - - - - - - 32.1 1012.9 0.0
18/12:00pm NNW 7 13 - - - - - - - 32.1 1013.4 0.0
18/11:30am NW 5 10 - - - - - - - 31.1 1013.8 0.0
18/11:00am NW 6 10 - - - - - - - 30.6 1014.3 0.0
18/10:30am NW 7 11 - - - - - - - 30.4 1014.5 0.0
18/10:00am WSW 3 10 - - - - - - - 29.9 1014.5 0.0
18/09:30am NW 6 8 - - - - - - - 28.6 1014.6 0.0
18/09:00am NW 4 6 - - - - - - - 27.8 1014.2 0.0
18/08:30am CALM 0 0 - - - - - - - 27.3 1013.8 0.0
18/08:00am SSW 1 3 - - - - - - - 25.5 1013.4 0.0
18/07:30am CALM 0 0 - - - - - - - 24.4 1013.0 0.0
18/07:00am CALM 0 0 - - - - - - - 24.3 1012.6 0.0
18/06:30am CALM 0 0 - - - - - - - 23.9 1012.1 0.0
18/06:00am CALM 0 0 - - - - - - - 23.9 1011.7 0.0
18/05:30am WSW 2 4 - - - - - - - 23.4 1011.4 0.0
18/05:00am WSW 3 4 - - - - - - - 23.4 1011.2 0.0
18/04:30am WSW 1 4 - - - - - - - 23.5 1011.3 0.0
18/04:00am CALM 0 0 - - - - - - - 23.8 1011.2 0.0
18/03:30am CALM 0 0 - - - - - - - 24.0 1011.2 0.0
18/03:00am CALM 0 0 - - - - - - - 24.1 1011.4 0.0
18/02:30am CALM 0 0 - - - - - - - 24.6 1011.4 0.0
18/02:00am WSW 3 4 - - - - - - - 23.9 1011.5 0.0
18/01:30am SW 3 4 - - - - - - - 23.6 1011.8 0.0
18/01:00am CALM 0 0 - - - - - - - 23.9 1012.0 0.0
18/12:30am CALM 0 0 - - - - - - - 24.8 1012.2 0.0
18/12:00am CALM 0 0 - - - - - - - 24.5 1012.3 0.0
 
Date/Time
CST
Wind Sea
Height
m
Swell Vis
km
Cloud Weather Temp
°C
Press
hPa
Rain since
9am
mm
Dir  Spd
kts
Gust
kts
Height
m
Period
s
Dir
17/11:30pm NNW 1 3 - - - - - - - 25.2 1012.4 0.0
17/11:00pm CALM 0 0 - - - - - - - 25.4 1012.4 0.0
17/10:30pm WNW 1 3 - - - - - - - 25.7 1012.3 0.0
17/10:00pm NNW 4 6 - - - - - - - 26.5 1012.1 0.0
17/09:30pm NW 1 4 - - - - - - - 26.3 1012.1 0.0
17/09:00pm W 1 4 - - - - - - - 26.3 1012.0 0.0
17/08:30pm WNW 1 4 - - - - - - - 26.6 1011.8 0.0
17/08:00pm WNW 3 4 - - - - - - - 26.7 1011.6 0.0
17/07:30pm WNW 5 7 - - - - - - - 26.9 1011.4 0.0
17/07:00pm WNW 5 8 - - - - - - - 27.3 1011.0 0.0
17/06:30pm WNW 7 9 - - - - - - - 27.9 1010.6 0.0
17/06:00pm WNW 7 11 - - - - - - - 28.7 1010.3 0.0
17/05:30pm WNW 8 13 - - - - - - - 29.2 1010.1 0.0
17/05:00pm WNW 9 14 - - - - - - - 29.8 1010.1 0.0
17/04:30pm WNW 9 15 - - - - - - - 30.1 1010.1 0.0
17/04:00pm WNW 9 14 - - - - - - - 30.6 1010.1 0.0
17/03:30pm NW 10 16 - - - - - - - 31.1 1010.4 0.0
17/03:00pm WNW 9 14 - - - - - - - 31.0 1010.8 0.0
17/02:30pm NW 10 14 - - - - - - - 31.3 1011.1 0.0
17/02:00pm WNW 10 13 - - - - - - - 30.9 1011.5 0.0
17/01:30pm WNW 10 15 - - - - - - - 30.8 1012.0 0.0
17/01:00pm NW 9 13 - - - - - - - 30.5 1012.6 0.0
17/12:30pm NNW 8 13 - - - - - - - 31.9 1012.9 0.0
17/12:00pm NW 8 13 - - - - - - - 30.6 1013.5 0.0
17/11:30am NW 7 13 - - - - - - - 30.9 1014.1 0.0
17/11:00am NW 7 11 - - - - - - - 30.0 1014.4 0.0
17/10:30am NW 7 11 - - - - - - - 30.0 1014.6 0.0
17/10:00am NW 6 9 - - - - - - - 28.5 1014.6 0.0
17/09:30am NNW 4 8 - - - - - - - 29.0 1014.4 0.0
17/09:00am NNE 2 6 - - - - - - - 28.3 1014.3 0.0
17/08:30am E 3 5 - - - - - - - 27.2 1014.0 0.0
17/08:00am E 4 6 - - - - - - - 25.6 1013.7 0.0
17/07:30am ESE 4 5 - - - - - - - 24.4 1013.3 0.0
17/07:00am ESE 3 4 - - - - - - - 23.4 1012.9 0.0
17/06:30am CALM 0 0 - - - - - - - 23.1 1012.4 0.0
17/06:00am CALM 0 0 - - - - - - - 22.5 1011.9 0.0
17/05:30am CALM 0 0 - - - - - - - 22.9 1011.7 0.0
17/05:00am CALM 0 0 - - - - - - - 23.1 1011.4 0.0
17/04:30am CALM 0 0 - - - - - - - 23.2 1011.3 0.0
17/04:00am CALM 0 0 - - - - - - - 23.3 1011.3 0.0
17/03:30am CALM 0 0 - - - - - - - 23.2 1011.3 0.0
17/03:00am WNW 2 4 - - - - - - - 23.2 1011.4 0.0
17/02:30am CALM 0 2 - - - - - - - 23.8 1011.5 0.0
17/02:00am WSW 1 3 - - - - - - - 23.4 1011.7 0.0
17/01:30am CALM 0 1 - - - - - - - 23.8 1012.1 0.0
17/01:00am WNW 2 4 - - - - - - - 24.4 1012.4 0.0
17/12:30am WNW 1 5 - - - - - - - 25.0 1012.6 0.0
17/12:00am CALM 0 0 - - - - - - - 24.5 1012.8 0.0
 
Date/Time
CST
Wind Sea
Height
m
Swell Vis
km
Cloud Weather Temp
°C
Press
hPa
Rain since
9am
mm
Dir  Spd
kts
Gust
kts
Height
m
Period
s
Dir
16/11:30pm CALM 0 0 - - - - - - - 24.8 1013.0 0.0
16/11:00pm CALM 0 0 - - - - - - - 24.8 1012.9 0.0
16/10:30pm CALM 0 0 - - - - - - - 25.3 1013.0 0.0
16/10:00pm CALM 0 0 - - - - - - - 25.9 1013.0 0.0
16/09:30pm NW 3 5 - - - - - - - 26.3 1012.8 0.0
16/09:00pm WNW 3 6 - - - - - - - 26.4 1012.5 0.0
16/08:30pm NW 4 6 - - - - - - - 26.9 1012.5 0.0
16/08:00pm WNW 3 5 - - - - - - - 26.7 1012.1 0.0
16/07:30pm WNW 4 6 - - - - - - - 27.1 1011.6 0.0
16/07:00pm WNW 5 9 - - - - - - - 27.2 1011.1 0.0
16/06:30pm W 8 12 - - - - - - - 27.8 1010.6 0.0
16/06:00pm W 9 13 - - - - - - - 28.4 1010.6 0.0
16/05:30pm WNW 7 12 - - - - - - - 29.4 1010.3 0.0
16/05:00pm WNW 9 15 - - - - - - - 30.0 1010.2 0.0
16/04:30pm W 9 16 - - - - - - - 30.0 1010.2 0.0
16/04:00pm WNW 9 14 - - - - - - - 30.8 1010.3 0.0
16/03:30pm WNW 9 14 - - - - - - - 31.1 1010.3 0.0
16/03:00pm NW 11 17 - - - - - - - 30.4 1010.7 0.0
16/02:30pm WNW 9 14 - - - - - - - 31.6 1011.0 0.0
16/02:00pm WNW 10 16 - - - - - - - 31.2 1011.5 0.0
16/01:30pm NW 10 16 - - - - - - - 31.4 1011.9 0.0
16/01:00pm NNW 11 15 - - - - - - - 32.0 1012.4 0.0
16/12:30pm NNW 9 14 - - - - - - - 31.3 1013.0 0.0
16/12:00pm NW 9 16 - - - - - - - 30.3 1013.6 0.0
16/11:30am NNW 10 16 - - - - - - - 30.3 1014.1 0.0
16/11:00am NW 8 13 - - - - - - - 30.3 1014.5 0.0
16/10:30am NW 6 12 - - - - - - - 30.0 1014.7 0.0
16/10:00am N 8 11 - - - - - - - 29.7 1014.9 0.0
16/09:30am N 9 12 - - - - - - - 29.0 1014.8 0.0
16/09:00am N 7 11 - - - - - - - 28.5 1014.7 0.0
16/08:30am NNE 4 5 - - - - - - - 27.3 1014.4 0.0
16/08:00am CALM 0 4 - - - - - - - 26.5 1014.2 0.0
16/07:30am CALM 0 1 - - - - - - - 23.6 1013.8 0.0
16/07:00am N 1 4 - - - - - - - 24.1 1013.5 0.0
16/06:30am SSE 1 4 - - - - - - - 23.6 1013.0 0.0
16/06:00am CALM 0 0 - - - - - - - 23.0 1012.4 0.0
16/05:30am CALM 0 0 - - - - - - - 23.5 1012.0 0.0
16/05:00am NNE 3 4 - - - - - - - 24.1 1011.9 0.0
16/04:30am CALM 0 0 - - - - - - - 22.8 1011.6 0.0
16/04:00am CALM 0 4 - - - - - - - 24.4 1011.5 0.0
16/03:30am CALM 0 0 - - - - - - - 24.0 1011.6 0.0
16/03:00am CALM 0 0 - - - - - - - 24.1 1011.8 0.0
16/02:30am CALM 0 0 - - - - - - - 23.8 1011.9 0.0
16/02:00am CALM 0 0 - - - - - - - 25.2 1012.2 0.0
16/01:30am NNW 3 5 - - - - - - - 26.0 1012.3 0.0
16/01:00am N 4 5 - - - - - - - 25.9 1012.5 0.0
16/12:30am NW 3 4 - - - - - - - 25.9 1012.8 0.0
16/12:00am NW 3 6 - - - - - - - 26.3 1012.9 0.0
 
Date/Time
CST
Wind Sea
Height
m
Swell Vis
km
Cloud Weather Temp
°C
Press
hPa
Rain since
9am
mm
Dir  Spd
kts
Gust
kts
Height
m
Period
s
Dir
15/11:30pm NW 3 5 - - - - - - - 26.3 1012.9 0.0
15/11:00pm NW 3 4 - - - - - - - 26.4 1013.0 0.0
15/10:30pm NW 1 4 - - - - - - - 26.6 1013.0 0.0
15/10:00pm NNW 2 6 - - - - - - - 26.9 1012.7 0.0
15/09:30pm N 5 8 - - - - - - - 26.6 1012.2 0.0
15/09:00pm CALM 0 0 - - - - - - - 26.2 1011.7 0.0
15/08:30pm CALM 0 0 - - - - - - - 26.5 1011.4 0.0
15/08:00pm WSW 1 3 - - - - - - - 26.6 1011.1 0.0
15/07:30pm WSW 4 5 - - - - - - - 27.1 1010.8 0.0
15/07:00pm W 5 6 - - - - - - - 27.6 1010.5 0.0
15/06:30pm W 6 10 - - - - - - - 28.3 1010.1 0.0
15/06:00pm W 8 13 - - - - - - - 29.2 1010.0 0.0
15/05:30pm W 8 13 - - - - - - - 30.0 1009.7 0.0
15/05:00pm W 8 14 - - - - - - - 30.7 1009.5 0.0
15/04:30pm W 10 16 - - - - - - - 30.7 1009.6 0.0

Other formats

Comma delimited format used in spreadsheet applications
http://www.bom.gov.au/fwo/IDD60701/IDD60701.95111.axf

JavaScript Object Notation format (JSON) in row-major order
http://www.bom.gov.au/fwo/IDD60701/IDD60701.95111.json

Data quality

Most of these data are generated automatically and are frequently updated. Quality checks on data are not normally performed. It is possible for incorrect values to appear. Refer to information at About Latest Weather Observations and please check the disclaimer before using these data.